createdAt,value
2016-12-07T00:01:19.819Z,0
2016-12-07T00:02:53.286Z,0
2016-12-07T00:04:27.846Z,0
2016-12-07T00:06:24.257Z,0
2016-12-07T00:07:59.916Z,0
2016-12-07T00:09:31.865Z,0
2016-12-07T00:11:04.576Z,0
2016-12-07T00:12:37.489Z,0
2016-12-07T00:14:09.513Z,0
2016-12-07T00:15:36.599Z,0
2016-12-07T00:16:51.399Z,0
2016-12-07T00:18:46.401Z,0
2016-12-07T00:20:21.421Z,0
2016-12-07T00:21:55.375Z,0
2016-12-07T00:23:28.841Z,0
2016-12-07T00:25:01.742Z,0
2016-12-07T00:26:35.872Z,0
2016-12-07T00:28:07.189Z,0
2016-12-07T00:29:32.775Z,0
2016-12-07T00:30:44.262Z,0
2016-12-07T00:32:16.284Z,0
2016-12-07T00:33:49.179Z,0
2016-12-07T00:35:17.054Z,0
2016-12-07T00:36:28.939Z,0
2016-12-07T00:38:23.012Z,0
2016-12-07T00:39:56.970Z,0
2016-12-07T00:41:29.187Z,0
2016-12-07T00:42:42.310Z,0
2016-12-07T00:44:14.069Z,0
2016-12-07T00:46:09.622Z,0
2016-12-07T00:47:42.599Z,0
2016-12-07T00:49:12.031Z,0
2016-12-07T00:50:25.352Z,0
2016-12-07T00:51:56.336Z,0
2016-12-07T00:53:27.989Z,0
2016-12-07T00:54:59.289Z,0
2016-12-07T00:56:30.491Z,0
2016-12-07T00:58:05.217Z,0
2016-12-07T00:59:35.918Z,0
2016-12-07T01:01:06.653Z,0
2016-12-07T01:02:18.126Z,0
2016-12-07T01:03:49.169Z,0
2016-12-07T01:05:23.338Z,0
2016-12-07T01:06:57.922Z,0
2016-12-07T01:08:31.617Z,0
2016-12-07T01:09:59.396Z,0
2016-12-07T01:11:31.321Z,0
2016-12-07T01:13:01.974Z,0
2016-12-07T01:14:33.184Z,0
2016-12-07T01:15:45.022Z,0
2016-12-07T01:17:16.946Z,0
2016-12-07T01:18:48.138Z,0
2016-12-07T01:20:19.134Z,0
2016-12-07T01:21:50.678Z,0
2016-12-07T01:23:21.998Z,0
2016-12-07T01:24:55.858Z,0
2016-12-07T01:26:27.454Z,0
2016-12-07T01:27:58.687Z,0
2016-12-07T01:29:10.632Z,0
2016-12-07T01:31:03.940Z,0
2016-12-07T01:32:40.794Z,0
2016-12-07T01:34:14.436Z,0
2016-12-07T01:35:45.481Z,0
2016-12-07T01:37:16.319Z,0
2016-12-07T01:38:27.880Z,0
2016-12-07T01:39:59.291Z,0
2016-12-07T01:41:33.466Z,0
2016-12-07T01:43:29.448Z,0
2016-12-07T01:45:02.496Z,0
2016-12-07T01:46:36.074Z,0
2016-12-07T01:48:08.214Z,0
2016-12-07T01:49:39.980Z,0
2016-12-07T01:51:15.133Z,0
2016-12-07T01:52:49.470Z,0
2016-12-07T01:54:24.285Z,0
2016-12-07T01:55:55.258Z,0
2016-12-07T01:57:26.215Z,0
2016-12-07T01:58:53.825Z,0
2016-12-07T02:00:09.615Z,0
2016-12-07T02:01:41.395Z,0
2016-12-07T02:03:12.884Z,0
2016-12-07T02:04:45.616Z,0
2016-12-07T02:06:15.271Z,0
2016-12-07T02:07:49.905Z,0
2016-12-07T02:09:23.623Z,0
2016-12-07T02:10:59.655Z,0
2016-12-07T02:12:33.037Z,0
2016-12-07T02:14:27.743Z,0
2016-12-07T02:16:00.561Z,0
2016-12-07T02:17:12.515Z,0
2016-12-07T02:18:43.356Z,0
2016-12-07T02:20:14.485Z,0
2016-12-07T02:21:46.049Z,0
2016-12-07T02:23:19.527Z,0
2016-12-07T02:24:52.414Z,0
2016-12-07T02:26:25.440Z,0
2016-12-07T02:27:58.299Z,0
2016-12-07T02:29:24.025Z,0
2016-12-07T02:30:36.319Z,0
2016-12-07T02:32:10.028Z,0
2016-12-07T02:33:41.281Z,0
2016-12-07T02:35:13.121Z,0
2016-12-07T02:36:43.880Z,0
2016-12-07T02:38:14.606Z,0
2016-12-07T02:39:48.057Z,0
2016-12-07T02:41:18.966Z,0
2016-12-07T02:42:50.725Z,0
2016-12-07T02:44:24.249Z,0
2016-12-07T02:45:57.526Z,0
2016-12-07T02:47:33.325Z,0
2016-12-07T02:49:05.545Z,0
2016-12-07T02:50:32.328Z,0
2016-12-07T02:51:48.193Z,0
2016-12-07T02:53:20.131Z,0
2016-12-07T02:54:50.885Z,0
2016-12-07T02:56:23.566Z,0
2016-12-07T02:58:00.308Z,0
2016-12-07T02:59:32.876Z,0
2016-12-07T03:01:06.556Z,0
2016-12-07T03:02:59.742Z,0
2016-12-07T03:04:11.996Z,0
2016-12-07T03:05:43.845Z,0
2016-12-07T03:07:18.492Z,0
2016-12-07T03:08:47.202Z,0
2016-12-07T03:10:22.484Z,0
2016-12-07T03:12:18.693Z,0
2016-12-07T03:13:51.386Z,0
2016-12-07T03:15:24.726Z,0
2016-12-07T03:16:55.552Z,0
2016-12-07T03:18:28.622Z,0
2016-12-07T03:20:02.448Z,0
2016-12-07T03:21:14.232Z,0
2016-12-07T03:22:46.953Z,0
2016-12-07T03:24:40.667Z,0
2016-12-07T03:26:15.030Z,0
2016-12-07T03:27:48.960Z,0
2016-12-07T03:29:27.385Z,0
2016-12-07T03:31:25.171Z,0
2016-12-07T03:33:04.128Z,0
2016-12-07T03:35:00.429Z,0
2016-12-07T03:36:38.087Z,0
2016-12-07T03:41:25.264Z,0
2016-12-07T03:42:36.948Z,0
2016-12-07T03:43:49.490Z,0
2016-12-07T03:45:01.916Z,0
2016-12-07T03:46:14.430Z,0
2016-12-07T03:47:26.593Z,0
2016-12-07T03:48:38.303Z,0
2016-12-07T03:49:50.856Z,0
2016-12-07T03:51:03.273Z,0
2016-12-07T03:52:15.527Z,0
2016-12-07T03:53:27.869Z,0
2016-12-07T03:54:39.755Z,0
2016-12-07T03:55:54.970Z,0
2016-12-07T03:57:10.130Z,0
2016-12-07T03:58:27.263Z,0
2016-12-07T03:59:43.055Z,0
2016-12-07T04:00:56.951Z,0
2016-12-07T04:02:10.327Z,0
2016-12-07T04:03:24.747Z,0
2016-12-07T04:04:43.486Z,0
2016-12-07T04:05:58.594Z,0
2016-12-07T04:07:13.030Z,0
2016-12-07T04:08:26.359Z,0
2016-12-07T04:09:42.204Z,0
2016-12-07T04:10:57.753Z,0
2016-12-07T04:12:15.597Z,0
2016-12-07T04:13:31.723Z,0
2016-12-07T04:14:45.918Z,0
2016-12-07T04:15:59.835Z,0
2016-12-07T04:17:14.605Z,0
2016-12-07T04:18:27.817Z,0
2016-12-07T04:19:42.851Z,0
2016-12-07T04:20:58.218Z,0
2016-12-07T04:22:11.321Z,0
2016-12-07T04:23:27.027Z,0
2016-12-07T04:24:41.253Z,0
2016-12-07T04:25:56.690Z,0
2016-12-07T04:27:09.290Z,0
2016-12-07T04:28:25.703Z,0
2016-12-07T04:29:41.226Z,0
2016-12-07T04:30:56.898Z,0
2016-12-07T04:32:11.486Z,0
2016-12-07T04:33:27.555Z,0
2016-12-07T04:34:42.520Z,0
2016-12-07T04:35:58.120Z,0
2016-12-07T04:37:11.468Z,0
2016-12-07T04:38:27.167Z,0
2016-12-07T04:39:39.649Z,0
2016-12-07T04:40:52.396Z,0
2016-12-07T04:42:05.506Z,0
2016-12-07T04:43:19.211Z,0
2016-12-07T04:44:32.769Z,0
2016-12-07T04:45:45.853Z,0
2016-12-07T04:46:59.398Z,0
2016-12-07T04:48:13.973Z,0
2016-12-07T04:49:27.860Z,0
2016-12-07T04:50:43.251Z,0
2016-12-07T04:51:58.496Z,0
2016-12-07T04:53:15.557Z,0
2016-12-07T04:54:30.331Z,0
2016-12-07T04:55:44.784Z,0
2016-12-07T04:56:58.669Z,0
2016-12-07T04:58:13.999Z,0
2016-12-07T04:59:26.923Z,0
2016-12-07T05:00:40.429Z,0
2016-12-07T05:01:57.364Z,0
2016-12-07T05:03:11.902Z,0
2016-12-07T05:04:27.720Z,0
2016-12-07T05:05:42.766Z,0
2016-12-07T05:06:54.382Z,0
2016-12-07T05:08:08.123Z,0
2016-12-07T05:09:21.647Z,0
2016-12-07T05:10:33.580Z,0
2016-12-07T05:11:46.405Z,0
2016-12-07T05:12:58.139Z,0
2016-12-07T05:14:09.871Z,0
2016-12-07T05:15:21.325Z,0
2016-12-07T05:16:33.279Z,0
2016-12-07T05:17:45.980Z,0
2016-12-07T05:18:58.163Z,0
2016-12-07T05:20:09.993Z,0
2016-12-07T05:21:24.346Z,0
2016-12-07T05:22:36.515Z,0
2016-12-07T05:23:48.902Z,0
2016-12-07T05:25:01.701Z,0
2016-12-07T05:26:13.988Z,0
2016-12-07T05:27:25.754Z,0
2016-12-07T05:28:37.326Z,0
2016-12-07T05:29:51.131Z,0
2016-12-07T05:31:02.653Z,0
2016-12-07T05:32:14.748Z,0
2016-12-07T05:33:28.174Z,0
2016-12-07T05:34:42.479Z,0
2016-12-07T05:35:58.958Z,0
2016-12-07T05:37:14.515Z,0
2016-12-07T05:38:26.893Z,0
2016-12-07T05:39:38.693Z,0
2016-12-07T05:40:50.282Z,0
2016-12-07T05:42:01.759Z,0
2016-12-07T05:43:13.581Z,0
2016-12-07T05:44:25.414Z,0
2016-12-07T05:45:36.992Z,0
2016-12-07T05:46:48.459Z,0
2016-12-07T05:48:00.162Z,0
2016-12-07T05:49:11.763Z,0
2016-12-07T05:50:23.668Z,0
2016-12-07T05:51:35.801Z,0
2016-12-07T05:52:47.331Z,0
2016-12-07T05:53:59.324Z,0
2016-12-07T05:55:10.973Z,0
2016-12-07T05:56:24.145Z,0
2016-12-07T05:57:35.900Z,0
2016-12-07T05:58:47.496Z,0
2016-12-07T05:59:59.231Z,0
2016-12-07T06:01:11.119Z,0
2016-12-07T06:02:23.236Z,0
2016-12-07T06:03:34.761Z,0
2016-12-07T06:04:46.226Z,0
2016-12-07T06:06:00.940Z,0
2016-12-07T06:07:14.275Z,0
2016-12-07T06:08:26.586Z,0
2016-12-07T06:09:40.580Z,0
2016-12-07T06:10:53.676Z,0
2016-12-07T06:12:05.829Z,0
2016-12-07T06:13:17.976Z,0
2016-12-07T06:14:30.398Z,0
2016-12-07T06:15:43.330Z,0
2016-12-07T06:16:56.740Z,0
2016-12-07T06:18:08.754Z,0
2016-12-07T06:19:20.490Z,0
2016-12-07T06:20:32.557Z,0
2016-12-07T06:21:44.190Z,0
2016-12-07T06:22:57.310Z,0
2016-12-07T06:24:10.786Z,0
2016-12-07T06:25:25.854Z,0
2016-12-07T06:26:39.083Z,0
2016-12-07T06:27:51.542Z,0
2016-12-07T06:29:04.761Z,0
2016-12-07T06:30:17.130Z,0
2016-12-07T06:31:31.705Z,0
2016-12-07T06:32:43.860Z,0
2016-12-07T06:33:56.322Z,0
2016-12-07T06:35:10.281Z,0
2016-12-07T06:36:26.912Z,0
2016-12-07T06:37:41.174Z,0
2016-12-07T06:38:53.085Z,0
2016-12-07T06:40:07.435Z,0
2016-12-07T06:41:20.650Z,0
2016-12-07T06:42:33.317Z,0
2016-12-07T06:43:44.821Z,0
2016-12-07T06:44:56.935Z,0
2016-12-07T06:46:08.778Z,0
2016-12-07T06:47:20.360Z,0
2016-12-07T06:48:32.307Z,0
2016-12-07T06:49:43.803Z,0
2016-12-07T06:50:55.554Z,0
2016-12-07T06:52:07.078Z,0
2016-12-07T06:53:18.832Z,0
2016-12-07T06:54:30.301Z,0
2016-12-07T06:55:41.803Z,0
2016-12-07T06:56:53.508Z,0
2016-12-07T06:58:05.347Z,0
2016-12-07T06:59:16.797Z,0
2016-12-07T07:00:28.597Z,0
2016-12-07T07:01:40.220Z,0
2016-12-07T07:02:52.039Z,0
2016-12-07T07:04:03.503Z,0
2016-12-07T07:05:15.333Z,0
2016-12-07T07:06:27.142Z,0
2016-12-07T07:07:38.592Z,0
2016-12-07T07:08:50.725Z,0
2016-12-07T07:10:02.794Z,0
2016-12-07T07:11:14.236Z,0
2016-12-07T07:12:25.732Z,0
2016-12-07T07:13:37.240Z,0
2016-12-07T07:14:49.041Z,0
2016-12-07T07:16:00.491Z,0
2016-12-07T07:17:12.224Z,0
2016-12-07T07:18:23.723Z,0
2016-12-07T07:19:35.244Z,0
2016-12-07T07:20:47.296Z,0
2016-12-07T07:21:58.780Z,0
2016-12-07T07:23:10.239Z,0
2016-12-07T07:24:21.968Z,0
2016-12-07T07:25:33.425Z,0
2016-12-07T07:26:45.239Z,0
2016-12-07T07:27:56.713Z,0
2016-12-07T07:29:08.192Z,0
2016-12-07T07:30:19.913Z,0
2016-12-07T07:31:31.425Z,0
2016-12-07T07:32:43.286Z,0
2016-12-07T07:33:55.185Z,5
2016-12-07T07:35:07.050Z,5
2016-12-07T07:36:18.915Z,5
2016-12-07T07:37:30.917Z,5
2016-12-07T07:38:42.807Z,5
2016-12-07T07:39:54.312Z,5
2016-12-07T07:41:06.000Z,5
2016-12-07T07:42:17.443Z,5
2016-12-07T07:43:28.956Z,5
2016-12-07T07:44:41.181Z,5
2016-12-07T07:45:53.053Z,5
2016-12-07T07:47:04.572Z,5
2016-12-07T07:48:45.544Z,5
2016-12-07T07:49:57.744Z,5
2016-12-07T07:51:11.722Z,5
2016-12-07T07:52:23.237Z,5
2016-12-07T07:53:34.751Z,10
2016-12-07T07:54:46.584Z,10
2016-12-07T07:55:58.419Z,10
2016-12-07T07:57:10.186Z,10
2016-12-07T07:58:21.695Z,10
2016-12-07T07:59:33.658Z,10
2016-12-07T08:00:45.541Z,10
2016-12-07T08:01:57.794Z,10
2016-12-07T08:03:09.972Z,10
2016-12-07T08:04:51.376Z,10
2016-12-07T08:06:03.400Z,15
2016-12-07T08:07:14.927Z,15
2016-12-07T08:08:26.967Z,15
2016-12-07T08:09:38.462Z,20
2016-12-07T08:10:50.062Z,20
2016-12-07T08:12:01.809Z,20
2016-12-07T08:13:13.876Z,20
2016-12-07T08:14:25.692Z,20
2016-12-07T08:15:37.692Z,20
2016-12-07T08:16:49.733Z,20
2016-12-07T08:18:01.299Z,20
2016-12-07T08:19:12.824Z,20
2016-12-07T08:20:24.561Z,20
2016-12-07T08:21:36.083Z,20
2016-12-07T08:22:47.885Z,20
2016-12-07T08:23:59.715Z,20
2016-12-07T08:25:11.182Z,25
2016-12-07T08:26:22.921Z,25
2016-12-07T08:27:34.418Z,25
2016-12-07T08:30:05.135Z,25
2016-12-07T08:31:37.043Z,25
2016-12-07T08:33:08.081Z,25
2016-12-07T08:34:19.994Z,25
2016-12-07T08:35:50.668Z,25
2016-12-07T08:37:22.219Z,25
2016-12-07T08:38:52.899Z,25
2016-12-07T08:40:23.662Z,30
2016-12-07T08:41:55.419Z,30
2016-12-07T08:43:06.927Z,35
2016-12-07T08:44:37.594Z,35
2016-12-07T08:46:08.979Z,40
2016-12-07T08:47:40.088Z,50
2016-12-07T08:49:10.769Z,55
2016-12-07T08:50:41.903Z,50
2016-12-07T08:51:53.472Z,50
2016-12-07T08:53:24.440Z,45
2016-12-07T08:54:55.950Z,40
2016-12-07T08:56:26.679Z,45
2016-12-07T08:57:57.540Z,45
2016-12-07T08:59:28.867Z,45
2016-12-07T09:00:40.681Z,45
2016-12-07T09:02:11.388Z,45
2016-12-07T09:03:36.994Z,45
2016-12-07T09:04:48.503Z,45
2016-12-07T09:06:19.462Z,45
2016-12-07T09:07:50.388Z,50
2016-12-07T09:09:21.630Z,50
2016-12-07T09:10:52.552Z,50
2016-12-07T09:12:23.424Z,55
2016-12-07T09:13:34.931Z,55
2016-12-07T09:15:08.145Z,60
2016-12-07T09:16:38.805Z,60
2016-12-07T09:18:09.798Z,60
2016-12-07T09:19:40.725Z,70
2016-12-07T09:21:11.455Z,75
2016-12-07T09:22:23.332Z,75
2016-12-07T09:23:54.374Z,65
2016-12-07T09:25:25.763Z,70
2016-12-07T09:26:56.578Z,60
2016-12-07T09:28:27.509Z,65
2016-12-07T09:29:59.427Z,60
2016-12-07T09:31:30.166Z,60
2016-12-07T09:32:42.022Z,55
2016-12-07T09:34:12.700Z,50
2016-12-07T09:35:43.620Z,55
2016-12-07T09:37:14.817Z,60
2016-12-07T09:38:45.578Z,70
2016-12-07T09:39:57.137Z,75
2016-12-07T09:41:28.100Z,70
2016-12-07T09:42:59.128Z,60
2016-12-07T09:44:30.005Z,65
2016-12-07T09:46:01.295Z,75
2016-12-07T09:47:32.208Z,80
2016-12-07T09:48:43.675Z,80
2016-12-07T09:50:14.374Z,80
2016-12-07T09:51:45.712Z,75
2016-12-07T09:53:16.636Z,75
2016-12-07T09:54:47.709Z,65
2016-12-07T09:56:18.458Z,65
2016-12-07T09:57:30.372Z,65
2016-12-07T09:59:01.342Z,60
2016-12-07T10:00:34.217Z,60
2016-12-07T10:02:04.950Z,60
2016-12-07T10:03:35.930Z,60
2016-12-07T10:05:07.328Z,65
2016-12-07T10:06:38.086Z,70
2016-12-07T10:07:49.961Z,70
2016-12-07T10:09:20.851Z,75
2016-12-07T10:10:52.063Z,80
2016-12-07T10:12:17.632Z,75
2016-12-07T10:13:29.097Z,70
2016-12-07T10:15:00.112Z,60
2016-12-07T10:16:31.073Z,50
2016-12-07T10:18:02.200Z,45
2016-12-07T10:19:33.254Z,45
2016-12-07T10:20:44.787Z,60
2016-12-07T10:22:15.712Z,45
2016-12-07T10:23:46.984Z,40
2016-12-07T10:25:17.646Z,40
2016-12-07T10:26:48.625Z,40
2016-12-07T10:28:00.166Z,40
2016-12-07T10:29:30.894Z,40
2016-12-07T10:31:02.121Z,40
2016-12-07T10:32:33.377Z,45
2016-12-07T10:34:04.106Z,55
2016-12-07T10:35:34.811Z,55
2016-12-07T10:36:46.554Z,55
2016-12-07T10:38:49.186Z,55
2016-12-07T10:40:20.751Z,60
2016-12-07T10:41:51.527Z,65
2016-12-07T10:43:22.395Z,70
2016-12-07T10:44:53.920Z,70
2016-12-07T10:46:27.277Z,65
2016-12-07T10:47:57.994Z,55
2016-12-07T10:49:10.027Z,55
2016-12-07T10:50:40.759Z,50
2016-12-07T10:52:11.705Z,65
2016-12-07T10:53:42.505Z,60
2016-12-07T10:55:13.614Z,55
2016-12-07T10:56:45.395Z,65
2016-12-07T10:57:57.222Z,55
2016-12-07T10:59:27.997Z,55
2016-12-07T11:00:58.793Z,60
2016-12-07T11:02:29.964Z,65
2016-12-07T11:03:41.456Z,65
2016-12-07T11:05:12.196Z,65
2016-12-07T11:06:42.971Z,70
2016-12-07T11:08:13.951Z,70
2016-12-07T11:09:44.723Z,70
2016-12-07T11:10:56.247Z,70
2016-12-07T11:12:27.619Z,75
2016-12-07T11:13:58.743Z,80
2016-12-07T11:15:29.433Z,70
2016-12-07T11:17:00.165Z,75
2016-12-07T11:18:30.874Z,80
2016-12-07T11:19:43.029Z,80
2016-12-07T11:21:13.969Z,75
2016-12-07T11:22:44.641Z,80
2016-12-07T11:24:10.770Z,70
2016-12-07T11:25:22.302Z,65
2016-12-07T11:26:53.515Z,55
2016-12-07T11:28:24.292Z,50
2016-12-07T11:29:55.416Z,50
2016-12-07T11:31:26.447Z,45
2016-12-07T11:32:38.175Z,45
2016-12-07T11:34:08.939Z,45
2016-12-07T11:35:39.684Z,50
2016-12-07T11:37:10.734Z,45
2016-12-07T11:38:41.414Z,40
2016-12-07T11:39:53.124Z,40
2016-12-07T11:41:23.809Z,35
2016-12-07T11:42:54.856Z,35
2016-12-07T11:44:25.508Z,35
2016-12-07T11:45:56.188Z,35
2016-12-07T11:47:27.192Z,35
2016-12-07T11:48:39.164Z,35
2016-12-07T11:50:10.775Z,35
2016-12-07T11:51:41.821Z,55
2016-12-07T11:53:12.841Z,70
2016-12-07T11:54:43.816Z,75
2016-12-07T11:56:14.559Z,75
2016-12-07T11:57:26.049Z,80
2016-12-07T11:59:18.167Z,75
2016-12-07T12:00:29.642Z,70
2016-12-07T12:02:00.974Z,70
2016-12-07T12:03:31.783Z,70
2016-12-07T12:05:03.173Z,80
2016-12-07T12:06:36.090Z,80
2016-12-07T12:08:06.994Z,85
2016-12-07T12:09:18.510Z,90
2016-12-07T12:10:50.914Z,80
2016-12-07T12:12:22.255Z,80
2016-12-07T12:13:53.344Z,70
2016-12-07T12:15:24.039Z,70
2016-12-07T12:16:57.174Z,70
2016-12-07T12:18:28.156Z,60
2016-12-07T12:19:59.755Z,55
2016-12-07T12:21:11.296Z,55
2016-12-07T12:22:42.090Z,55
2016-12-07T12:24:13.339Z,55
2016-12-07T12:25:44.348Z,50
2016-12-07T12:27:15.117Z,50
2016-12-07T12:28:26.727Z,45
2016-12-07T12:29:57.834Z,45
2016-12-07T12:31:29.407Z,45
2016-12-07T12:33:00.737Z,45
2016-12-07T12:34:31.523Z,45
2016-12-07T12:36:02.489Z,45
2016-12-07T12:37:35.068Z,50
2016-12-07T12:38:46.521Z,55
2016-12-07T12:40:17.493Z,60
2016-12-07T12:41:48.682Z,65
2016-12-07T12:43:19.570Z,60
2016-12-07T12:44:50.260Z,60
2016-12-07T12:46:21.231Z,65
2016-12-07T12:48:00.600Z,60
2016-12-07T12:49:31.715Z,65
2016-12-07T12:51:02.838Z,60
2016-12-07T12:52:33.525Z,55
2016-12-07T12:53:45.372Z,50
2016-12-07T12:55:16.435Z,50
2016-12-07T12:56:42.934Z,55
2016-12-07T12:58:14.024Z,55
2016-12-07T12:59:25.544Z,50
2016-12-07T13:00:56.731Z,40
2016-12-07T13:02:27.414Z,40
2016-12-07T13:03:56.797Z,45
2016-12-07T13:05:27.743Z,45
2016-12-07T13:06:39.231Z,45
2016-12-07T13:08:10.187Z,45
2016-12-07T13:09:41.221Z,40
2016-12-07T13:11:12.334Z,35
2016-12-07T13:12:43.293Z,35
2016-12-07T13:13:54.810Z,40
2016-12-07T13:15:20.331Z,40
2016-12-07T13:16:48.597Z,40
2016-12-07T13:18:00.083Z,40
2016-12-07T13:19:26.451Z,40
2016-12-07T13:20:38.020Z,40
2016-12-07T13:22:09.188Z,40
2016-12-07T13:23:40.831Z,40
2016-12-07T13:25:11.553Z,35
2016-12-07T13:26:37.592Z,35
2016-12-07T13:27:49.088Z,35
2016-12-07T13:29:21.725Z,35
2016-12-07T13:30:52.427Z,35
2016-12-07T13:32:23.118Z,30
2016-12-07T13:33:54.090Z,35
2016-12-07T13:35:06.102Z,35
2016-12-07T13:36:37.052Z,35
2016-12-07T13:38:07.745Z,35
2016-12-07T13:39:38.990Z,35
2016-12-07T13:41:10.408Z,35
2016-12-07T13:42:41.057Z,35
2016-12-07T13:44:13.567Z,35
2016-12-07T13:45:25.980Z,35
2016-12-07T13:46:53.998Z,35
2016-12-07T13:48:19.583Z,35
2016-12-07T13:49:31.084Z,35
2016-12-07T13:51:02.347Z,35
2016-12-07T13:54:37.107Z,35
2016-12-07T13:56:08.322Z,35
2016-12-07T13:57:39.478Z,35
2016-12-07T13:58:51.294Z,35
2016-12-07T14:00:17.784Z,35
2016-12-07T14:01:49.114Z,35
2016-12-07T14:03:20.099Z,35
2016-12-07T14:04:31.925Z,35
2016-12-07T14:06:03.038Z,35
2016-12-07T14:07:28.871Z,30
2016-12-07T14:08:40.446Z,30
2016-12-07T14:10:11.400Z,25
2016-12-07T14:11:42.353Z,25
2016-12-07T14:13:13.085Z,25
2016-12-07T14:14:44.281Z,25
2016-12-07T14:16:15.098Z,25
2016-12-07T14:17:27.043Z,20
2016-12-07T14:18:57.827Z,25
2016-12-07T14:20:29.251Z,20
2016-12-07T14:22:00.272Z,20
2016-12-07T14:23:31.020Z,20
2016-12-07T14:25:01.706Z,20
2016-12-07T14:26:13.295Z,20
2016-12-07T14:27:44.629Z,20
2016-12-07T14:29:15.663Z,20
2016-12-07T14:30:46.356Z,20
2016-12-07T14:32:17.327Z,15
2016-12-07T14:33:48.393Z,15
2016-12-07T14:34:59.976Z,15
2016-12-07T14:36:30.905Z,15
2016-12-07T14:38:01.847Z,15
2016-12-07T14:39:32.942Z,15
2016-12-07T14:41:03.792Z,10
2016-12-07T14:42:15.268Z,10
2016-12-07T14:43:46.357Z,10
2016-12-07T14:45:17.333Z,10
2016-12-07T14:46:48.084Z,10
2016-12-07T14:48:18.787Z,10
2016-12-07T14:49:49.912Z,10
2016-12-07T14:51:01.689Z,10
2016-12-07T14:52:32.458Z,10
2016-12-07T14:54:04.004Z,10
2016-12-07T14:55:35.013Z,5
2016-12-07T14:57:05.921Z,5
2016-12-07T14:58:36.696Z,5
2016-12-07T14:59:48.176Z,5
2016-12-07T15:01:18.842Z,5
2016-12-07T15:02:49.758Z,5
2016-12-07T15:04:21.100Z,5
2016-12-07T15:05:51.829Z,5
2016-12-07T15:07:03.344Z,5
2016-12-07T15:08:34.279Z,5
2016-12-07T15:10:05.861Z,0
2016-12-07T15:11:36.976Z,0
2016-12-07T15:13:07.936Z,0
2016-12-07T15:14:38.693Z,0
2016-12-07T15:16:10.606Z,0
2016-12-07T15:17:43.981Z,0
2016-12-07T15:18:55.576Z,0
2016-12-07T15:20:26.569Z,0
2016-12-07T15:21:57.624Z,0
2016-12-07T15:23:28.424Z,0
2016-12-07T15:24:54.464Z,0
2016-12-07T15:26:06.509Z,0
2016-12-07T15:27:37.544Z,0
2016-12-07T15:29:08.955Z,0
2016-12-07T15:30:40.047Z,0
2016-12-07T15:32:11.254Z,0
2016-12-07T15:33:23.168Z,0
2016-12-07T15:34:54.920Z,0
2016-12-07T15:36:21.024Z,0
2016-12-07T15:37:32.927Z,0
2016-12-07T15:39:03.762Z,0
2016-12-07T15:40:34.601Z,0
2016-12-07T15:42:05.838Z,0
2016-12-07T15:43:36.979Z,0
2016-12-07T15:45:08.003Z,0
2016-12-07T15:46:19.702Z,0
2016-12-07T15:47:45.381Z,0
2016-12-07T15:49:16.882Z,0
2016-12-07T15:50:48.898Z,0
2016-12-07T15:52:20.234Z,0
2016-12-07T15:53:32.289Z,0
2016-12-07T15:55:03.732Z,0
2016-12-07T15:56:36.781Z,0
2016-12-07T15:58:07.527Z,0
2016-12-07T15:59:38.927Z,0
2016-12-07T16:01:09.610Z,0
2016-12-07T16:02:40.331Z,0
2016-12-07T16:03:52.120Z,0
2016-12-07T16:05:23.059Z,0
2016-12-07T16:06:54.718Z,0
2016-12-07T16:08:27.018Z,0
2016-12-07T16:09:59.452Z,0
2016-12-07T16:11:30.718Z,0
2016-12-07T16:13:01.632Z,0
2016-12-07T16:14:33.458Z,0
2016-12-07T16:15:45.166Z,0
2016-12-07T16:17:17.348Z,0
2016-12-07T16:18:49.016Z,0
2016-12-07T16:20:20.242Z,0
2016-12-07T16:21:46.649Z,0
2016-12-07T16:22:59.262Z,0
2016-12-07T16:24:30.370Z,0
2016-12-07T16:26:01.268Z,0
2016-12-07T16:27:32.617Z,0
2016-12-07T16:29:04.207Z,0
2016-12-07T16:30:35.783Z,0
2016-12-07T16:31:47.371Z,0
2016-12-07T16:33:18.365Z,0
2016-12-07T16:34:50.116Z,0
2016-12-07T16:36:16.644Z,0
2016-12-07T16:37:28.199Z,0
2016-12-07T16:38:59.002Z,0
2016-12-07T16:40:31.774Z,0
2016-12-07T16:41:57.822Z,0
2016-12-07T16:43:09.756Z,0
2016-12-07T16:44:35.351Z,0
2016-12-07T16:46:06.806Z,0
2016-12-07T16:47:40.253Z,0
2016-12-07T16:49:11.546Z,0
2016-12-07T16:50:23.082Z,0
2016-12-07T16:51:54.024Z,0
2016-12-07T16:53:25.268Z,0
2016-12-07T16:54:56.406Z,0
2016-12-07T16:56:27.235Z,0
2016-12-07T16:57:59.631Z,0
2016-12-07T16:59:30.934Z,0
2016-12-07T17:00:43.305Z,0
2016-12-07T17:02:14.104Z,0
2016-12-07T17:03:46.379Z,0
2016-12-07T17:05:17.493Z,0
2016-12-07T17:06:43.428Z,0
2016-12-07T17:07:55.203Z,0
2016-12-07T17:09:27.933Z,0
2016-12-07T17:11:00.287Z,0
2016-12-07T17:12:31.066Z,0
2016-12-07T17:14:01.996Z,0
2016-12-07T17:15:28.348Z,0
2016-12-07T17:16:39.876Z,0
2016-12-07T17:18:11.070Z,0
2016-12-07T17:19:42.272Z,0
2016-12-07T17:21:13.480Z,0
2016-12-07T17:22:25.148Z,0
2016-12-07T17:23:57.095Z,0
2016-12-07T17:25:28.023Z,0
2016-12-07T17:26:59.322Z,0
2016-12-07T17:28:30.056Z,0
2016-12-07T17:30:01.863Z,0
2016-12-07T17:31:32.534Z,0
2016-12-07T17:32:44.239Z,0
2016-12-07T17:34:15.777Z,0
2016-12-07T17:35:46.744Z,0
2016-12-07T17:37:18.132Z,0
2016-12-07T17:38:49.825Z,0
2016-12-07T17:40:20.686Z,0
2016-12-07T17:41:52.233Z,0
2016-12-07T17:43:04.243Z,0
2016-12-07T17:44:35.798Z,0
2016-12-07T17:46:08.454Z,0
2016-12-07T17:47:39.663Z,0
2016-12-07T17:49:10.675Z,0
2016-12-07T17:50:43.240Z,0
2016-12-07T17:52:14.308Z,0
2016-12-07T17:53:45.700Z,0
2016-12-07T17:54:57.520Z,0
2016-12-07T17:56:28.328Z,0
2016-12-07T17:57:59.467Z,0
2016-12-07T17:59:25.369Z,0
2016-12-07T18:00:37.251Z,0
2016-12-07T18:02:08.796Z,0
2016-12-07T18:03:40.012Z,0
2016-12-07T18:05:11.049Z,0
2016-12-07T18:06:42.959Z,0
2016-12-07T18:08:14.008Z,0
2016-12-07T18:09:25.702Z,0
2016-12-07T18:10:56.621Z,0
2016-12-07T18:12:27.453Z,0
2016-12-07T18:13:39.090Z,0
2016-12-07T18:15:10.603Z,0
2016-12-07T18:16:42.110Z,0
2016-12-07T18:18:36.647Z,0
2016-12-07T18:20:15.934Z,0
2016-12-07T18:21:50.762Z,0
2016-12-07T18:23:25.830Z,0
2016-12-07T18:24:57.946Z,0
2016-12-07T18:26:33.030Z,0
2016-12-07T18:28:06.864Z,0
2016-12-07T18:30:00.133Z,0
2016-12-07T18:31:12.188Z,0
2016-12-07T18:32:44.311Z,0
2016-12-07T18:34:16.435Z,0
2016-12-07T18:35:47.465Z,0
2016-12-07T18:37:18.883Z,0
2016-12-07T18:38:49.979Z,0
2016-12-07T18:40:21.469Z,0
2016-12-07T18:41:53.147Z,0
2016-12-07T18:43:05.019Z,0
2016-12-07T18:44:36.303Z,0
2016-12-07T18:45:49.154Z,0
2016-12-07T18:47:21.207Z,0
2016-12-07T18:48:54.861Z,0
2016-12-07T18:50:48.648Z,0
2016-12-07T18:52:00.942Z,0
2016-12-07T18:53:32.280Z,0
2016-12-07T18:55:03.513Z,0
2016-12-07T18:56:35.103Z,0
2016-12-07T18:58:06.344Z,0
2016-12-07T18:59:37.183Z,0
2016-12-07T19:00:48.732Z,0
2016-12-07T19:02:19.771Z,0
2016-12-07T19:03:50.985Z,0
2016-12-07T19:05:22.510Z,0
2016-12-07T19:06:53.567Z,0
2016-12-07T19:08:24.719Z,0
2016-12-07T19:09:55.525Z,0
2016-12-07T19:11:07.771Z,0
2016-12-07T19:12:40.081Z,0
2016-12-07T19:14:11.896Z,0
2016-12-07T19:15:37.917Z,0
2016-12-07T19:17:09.384Z,0
2016-12-07T19:18:22.097Z,0
2016-12-07T19:19:54.377Z,0
2016-12-07T19:21:25.216Z,0
2016-12-07T19:22:57.033Z,0
2016-12-07T19:24:29.268Z,0
2016-12-07T19:26:01.700Z,0
2016-12-07T19:27:32.900Z,0
2016-12-07T19:29:04.711Z,0
2016-12-07T19:30:36.874Z,0
2016-12-07T19:32:09.227Z,0
2016-12-07T19:33:41.528Z,0
2016-12-07T19:34:54.468Z,0
2016-12-07T19:36:20.105Z,0
2016-12-07T19:37:51.038Z,0
2016-12-07T19:39:21.982Z,0
2016-12-07T19:40:34.488Z,0
2016-12-07T19:42:05.461Z,0
2016-12-07T19:43:36.636Z,0
2016-12-07T19:45:07.380Z,0
2016-12-07T19:46:38.125Z,0
2016-12-07T19:48:09.931Z,0
2016-12-07T19:49:21.858Z,0
2016-12-07T19:51:15.965Z,0
2016-12-07T19:52:28.662Z,0
2016-12-07T19:54:00.364Z,0
2016-12-07T19:55:31.376Z,0
2016-12-07T19:57:02.827Z,0
2016-12-07T19:58:33.987Z,0
2016-12-07T20:00:06.681Z,0
2016-12-07T20:01:38.000Z,0
2016-12-07T20:03:09.811Z,0
2016-12-07T20:04:21.511Z,0
2016-12-07T20:05:52.854Z,0
2016-12-07T20:07:24.204Z,0
2016-12-07T20:08:54.968Z,0
2016-12-07T20:10:20.998Z,0
2016-12-07T20:11:33.340Z,0
2016-12-07T20:13:08.220Z,0
2016-12-07T20:14:40.430Z,0
2016-12-07T20:16:11.797Z,0
2016-12-07T20:17:42.968Z,0
2016-12-07T20:19:14.588Z,0
2016-12-07T20:20:26.367Z,0
2016-12-07T20:21:57.279Z,0
2016-12-07T20:23:23.509Z,0
2016-12-07T20:24:35.056Z,0
2016-12-07T20:26:06.230Z,0
2016-12-07T20:27:37.645Z,0
2016-12-07T20:29:09.034Z,0
2016-12-07T20:30:41.148Z,0
2016-12-07T20:32:13.365Z,0
2016-12-07T20:33:45.101Z,0
2016-12-07T20:35:17.013Z,0
2016-12-07T20:36:49.419Z,0
2016-12-07T20:38:01.832Z,0
2016-12-07T20:39:33.755Z,0
2016-12-07T20:41:06.575Z,0
2016-12-07T20:42:39.529Z,0